Time;durP1;ratioP1;P1;durP2;ratioP2;P2;SDS_P1;SDS_P2;PMS_P1;PMS_P2;Temp;Humidity;BMP_temperature;BMP_pressure;BME280_temperature;BME280_humidity;BME280_pressure;Samples;Min_cycle;Max_cycle;Signal;HPM_P1;HPM_P2
2021/12/13 00:02:09;;;;;;;1.03;0.70;;;3.00;96.30;;;;;;4859295;29;20447;-80
2021/12/13 00:04:43;;;;;;;1.10;0.80;;;3.00;96.30;;;;;;4860698;29;20403;-78
2021/12/13 00:07:20;;;;;;;0.80;0.60;;;3.00;96.30;;;;;;4860472;29;20419;-78
2021/12/13 00:09:50;;;;;;;1.00;0.80;;;3.00;96.30;;;;;;4860528;29;20498;-80
2021/12/13 00:12:29;;;;;;;0.90;0.60;;;3.00;96.30;;;;;;4860273;29;20461;-79
2021/12/13 00:14:56;;;;;;;0.87;0.63;;;3.00;96.30;;;;;;4860491;29;20767;-79
2021/12/13 00:17:27;;;;;;;0.90;0.73;;;3.00;96.30;;;;;;4860215;29;20419;-79
2021/12/13 00:19:59;;;;;;;0.80;0.60;;;3.00;96.30;;;;;;4859195;29;20402;-79
2021/12/13 00:22:34;;;;;;;0.80;0.60;;;3.00;96.30;;;;;;4860265;29;20852;-78
2021/12/13 00:25:10;;;;;;;0.80;0.60;;;3.10;96.30;;;;;;4861114;29;20391;-78
2021/12/13 00:27:43;;;;;;;0.80;0.53;;;3.00;96.30;;;;;;4859944;29;20462;-78
2021/12/13 00:30:20;;;;;;;0.90;0.57;;;3.10;96.30;;;;;;4858249;29;21022;-79
2021/12/13 00:33:19;;;;;;;0.87;0.60;;;3.10;96.30;;;;;;4860148;29;20407;-79
2021/12/13 00:35:52;;;;;;;1.03;0.70;;;3.10;96.30;;;;;;4860010;29;20896;-79
2021/12/13 00:38:21;;;;;;;0.90;0.60;;;3.10;96.30;;;;;;4860214;29;20411;-79
2021/12/13 00:40:53;;;;;;;0.80;0.57;;;3.10;96.30;;;;;;4858793;29;20868;-79
2021/12/13 00:43:43;;;;;;;0.80;0.60;;;3.10;96.30;;;;;;4858341;29;20423;-79
2021/12/13 00:46:12;;;;;;;1.33;0.90;;;3.10;96.30;;;;;;4859717;29;20419;-79
2021/12/13 00:48:42;;;;;;;0.90;0.60;;;3.10;96.30;;;;;;4859935;29;20974;-78
2021/12/13 00:51:16;;;;;;;0.90;0.70;;;3.10;96.30;;;;;;4859835;29;20446;-79
2021/12/13 00:53:46;;;;;;;0.90;0.70;;;3.10;96.30;;;;;;4858825;29;20498;-78
2021/12/13 00:56:50;;;;;;;0.90;0.80;;;3.10;96.30;;;;;;4858476;29;20431;-79
2021/12/13 00:59:53;;;;;;;2.23;0.67;;;3.10;96.30;;;;;;4858693;29;20796;-80
2021/12/13 05:02:20;;;;;;;0.80;0.40;;;4.00;96.30;;;;;;4996194;23;20528;-79
2021/12/13 05:04:50;;;;;;;0.80;0.47;;;4.00;96.30;;;;;;4878893;29;20933;-78
2021/12/13 05:07:17;;;;;;;1.00;0.50;;;4.00;96.30;;;;;;4876673;29;20406;-77
2021/12/13 05:09:47;;;;;;;0.80;0.50;;;4.10;96.30;;;;;;4877165;29;20573;-79
2021/12/13 05:12:15;;;;;;;0.90;0.50;;;4.00;96.30;;;;;;4877184;29;20970;-79
2021/12/13 05:14:41;;;;;;;1.10;0.50;;;4.10;96.30;;;;;;4879328;29;20429;-80
2021/12/13 05:17:12;;;;;;;0.80;0.50;;;4.10;96.30;;;;;;4882191;29;20422;-80
2021/12/13 05:20:02;;;;;;;0.80;0.50;;;4.10;96.30;;;;;;4887812;29;20197;-79
2021/12/13 05:22:29;;;;;;;0.77;0.50;;;4.10;96.30;;;;;;4860681;29;20450;-79
2021/12/13 05:25:01;;;;;;;0.80;0.47;;;4.10;96.30;;;;;;4876871;29;20430;-79
2021/12/13 05:27:38;;;;;;;0.87;0.50;;;4.10;96.30;;;;;;4877872;29;20398;-79
2021/12/13 05:30:10;;;;;;;0.80;0.50;;;4.10;96.30;;;;;;4881218;29;20425;-78
2021/12/13 05:32:43;;;;;;;1.00;0.40;;;4.20;96.30;;;;;;4880402;29;20462;-79
2021/12/13 05:35:22;;;;;;;0.73;0.47;;;4.20;96.30;;;;;;4882041;29;20948;-79
2021/12/13 05:37:55;;;;;;;0.80;0.40;;;4.10;96.30;;;;;;4883986;29;20430;-78
2021/12/13 05:40:24;;;;;;;0.80;0.50;;;4.20;96.30;;;;;;4881615;29;20432;-79
2021/12/13 05:42:58;;;;;;;0.73;0.40;;;4.20;96.30;;;;;;4880026;29;20530;-79
2021/12/13 05:45:37;;;;;;;1.07;0.50;;;4.10;96.30;;;;;;4882035;29;20509;-79
2021/12/13 05:48:14;;;;;;;0.80;0.50;;;4.20;96.30;;;;;;4884707;29;20857;-80
2021/12/13 05:50:49;;;;;;;0.70;0.47;;;4.20;96.30;;;;;;4872344;29;20525;-79
2021/12/13 05:53:20;;;;;;;0.90;0.60;;;4.20;96.30;;;;;;4885608;29;21001;-80
2021/12/13 05:55:52;;;;;;;0.80;0.50;;;4.20;96.30;;;;;;4881799;29;20943;-80
2021/12/13 05:58:31;;;;;;;0.80;0.50;;;4.30;96.30;;;;;;4884436;29;20437;-83
2021/12/13 06:00:59;;;;;;;0.80;0.50;;;4.30;96.30;;;;;;4892533;29;20843;-80
2021/12/13 06:03:34;;;;;;;0.80;0.50;;;4.20;96.30;;;;;;4897434;29;20429;-81
2021/12/13 06:06:10;;;;;;;0.80;0.50;;;4.30;96.30;;;;;;4870893;29;20437;-77
2021/12/13 06:08:42;;;;;;;0.93;0.50;;;4.30;96.30;;;;;;4861536;29;20454;-77
2021/12/13 06:11:12;;;;;;;0.80;0.50;;;4.20;96.30;;;;;;4874971;29;20533;-77
2021/12/13 06:13:43;;;;;;;0.80;0.50;;;4.30;96.30;;;;;;4881903;29;20425;-77
2021/12/13 06:16:23;;;;;;;0.80;0.47;;;4.30;96.30;;;;;;4881001;29;20437;-78
2021/12/13 06:18:58;;;;;;;1.10;0.50;;;4.30;96.30;;;;;;4881090;29;20407;-79
2021/12/13 06:21:47;;;;;;;0.80;0.50;;;4.30;96.30;;;;;;4881089;29;20504;-77
2021/12/13 06:24:13;;;;;;;0.80;0.50;;;4.30;96.30;;;;;;4862774;29;20463;-77
2021/12/13 06:26:39;;;;;;;0.80;0.53;;;4.30;96.30;;;;;;4862316;29;20423;-77
2021/12/13 06:29:07;;;;;;;0.80;0.50;;;4.30;96.30;;;;;;4862257;29;20206;-77
2021/12/13 06:31:38;;;;;;;0.80;0.40;;;4.30;96.30;;;;;;4862109;29;20810;-77
2021/12/13 06:34:07;;;;;;;0.90;0.53;;;4.30;96.30;;;;;;4862053;29;20422;-76
2021/12/13 06:36:40;;;;;;;0.80;0.50;;;4.30;96.30;;;;;;4867193;29;20427;-77
2021/12/13 06:39:14;;;;;;;0.90;0.50;;;4.30;96.30;;;;;;4860592;29;20586;-78
2021/12/13 06:41:52;;;;;;;0.90;0.60;;;4.30;96.30;;;;;;4861036;29;20445;-77
2021/12/13 06:44:25;;;;;;;0.90;0.70;;;4.30;96.30;;;;;;4860588;29;20518;-79
2021/12/13 06:47:11;;;;;;;0.80;0.50;;;4.30;96.30;;;;;;4860335;29;20442;-78
2021/12/13 06:49:53;;;;;;;0.90;0.60;;;4.40;96.30;;;;;;4860612;29;20462;-77
2021/12/13 06:52:23;;;;;;;0.80;0.50;;;4.40;96.30;;;;;;4860473;29;20446;-77
2021/12/13 06:55:00;;;;;;;0.80;0.60;;;4.40;96.30;;;;;;4864376;29;20427;-78
2021/12/13 06:57:41;;;;;;;0.80;0.50;;;4.30;96.30;;;;;;4883718;29;20410;-77
2021/12/13 07:00:21;;;;;;;1.07;0.90;;;4.40;96.30;;;;;;4897581;29;20535;-78
2021/12/13 07:02:54;;;;;;;2.40;1.03;;;4.40;96.30;;;;;;4898940;29;20551;-78
2021/12/13 07:05:27;;;;;;;0.90;0.60;;;4.40;96.30;;;;;;4895824;29;20979;-77
2021/12/13 07:08:08;;;;;;;0.90;0.60;;;4.40;96.30;;;;;;4879870;29;20480;-78
2021/12/13 07:10:57;;;;;;;0.90;0.60;;;4.40;96.30;;;;;;4880014;29;20427;-78
2021/12/13 07:13:28;;;;;;;1.17;0.60;;;4.40;96.30;;;;;;4880042;29;20409;-78
2021/12/13 07:16:15;;;;;;;1.07;0.80;;;4.40;96.30;;;;;;4879780;29;20418;-77
2021/12/13 07:18:49;;;;;;;0.90;0.63;;;4.40;96.30;;;;;;4895072;29;20421;-78
2021/12/13 07:21:26;;;;;;;0.80;0.50;;;4.40;96.30;;;;;;4897205;29;20465;-78
2021/12/13 07:24:09;;;;;;;0.90;0.70;;;4.50;96.30;;;;;;4898691;29;20492;-78
2021/12/13 07:26:57;;;;;;;1.10;0.60;;;4.50;96.30;;;;;;4896944;29;20492;-77
2021/12/13 07:29:27;;;;;;;0.93;0.70;;;4.50;96.30;;;;;;4898481;29;20449;-78
2021/12/13 07:32:13;;;;;;;0.90;0.70;;;4.50;96.30;;;;;;4897107;29;20500;-78
2021/12/13 07:34:55;;;;;;;2.17;0.80;;;4.50;96.30;;;;;;4898512;29;20406;-77
2021/12/13 07:37:46;;;;;;;0.90;0.60;;;4.60;96.30;;;;;;4896983;29;20937;-77
2021/12/13 07:40:32;;;;;;;1.07;0.67;;;4.60;96.30;;;;;;4898268;29;20501;-78
2021/12/13 07:43:00;;;;;;;1.00;0.60;;;4.60;96.30;;;;;;4897140;29;20428;-77
2021/12/13 07:45:40;;;;;;;0.80;0.57;;;4.70;96.30;;;;;;4898154;29;20428;-78
2021/12/13 07:48:10;;;;;;;0.90;0.60;;;4.70;96.30;;;;;;4896700;29;21154;-78
2021/12/13 07:50:37;;;;;;;0.83;0.60;;;4.70;96.30;;;;;;4898139;29;20797;-78
2021/12/13 07:53:08;;;;;;;0.90;0.67;;;4.70;96.30;;;;;;4897907;29;20448;-77
2021/12/13 07:55:45;;;;;;;1.87;0.77;;;4.80;96.30;;;;;;4898091;29;20901;-78
2021/12/13 07:58:15;;;;;;;2.43;1.10;;;4.80;96.30;;;;;;4886694;29;20426;-79
2021/12/13 08:00:41;;;;;;;1.10;0.80;;;4.80;96.30;;;;;;4877809;29;20466;-78
2021/12/13 08:03:11;;;;;;;1.20;0.70;;;4.90;96.30;;;;;;4879240;29;20505;-78
2021/12/13 08:05:44;;;;;;;0.90;0.70;;;4.90;96.30;;;;;;4877976;29;20646;-78
2021/12/13 08:08:20;;;;;;;1.00;0.90;;;4.90;96.30;;;;;;4877873;29;20462;-77
2021/12/13 08:10:48;;;;;;;1.00;0.80;;;4.90;96.30;;;;;;4879070;29;20478;-78
2021/12/13 08:13:18;;;;;;;0.90;0.70;;;4.90;96.30;;;;;;4879116;29;20425;-78
2021/12/13 08:15:52;;;;;;;0.97;0.70;;;4.90;96.30;;;;;;4877592;29;20786;-78
2021/12/13 08:18:23;;;;;;;0.80;0.60;;;4.90;96.30;;;;;;4879041;29;20410;-78
2021/12/13 08:21:02;;;;;;;1.10;0.80;;;4.90;96.30;;;;;;4878787;29;20444;-79
2021/12/13 08:23:35;;;;;;;1.10;0.80;;;5.00;96.30;;;;;;4878938;29;20420;-78
2021/12/13 08:26:05;;;;;;;1.83;0.90;;;5.00;96.30;;;;;;4878704;29;20807;-78
2021/12/13 08:28:35;;;;;;;0.90;0.70;;;5.00;96.30;;;;;;4878782;29;20480;-78
2021/12/13 08:31:03;;;;;;;0.90;0.80;;;5.10;96.30;;;;;;4878689;29;20539;-78
2021/12/13 08:33:35;;;;;;;1.00;0.70;;;5.10;96.30;;;;;;4878680;29;20420;-78
2021/12/13 08:36:11;;;;;;;0.93;0.67;;;5.20;96.30;;;;;;4878541;29;20794;-78
2021/12/13 08:38:45;;;;;;;0.90;0.67;;;5.20;96.30;;;;;;4877503;29;20409;-78
2021/12/13 08:41:32;;;;;;;0.90;0.70;;;5.30;96.30;;;;;;4878683;29;20440;-78
2021/12/13 08:44:01;;;;;;;0.87;0.60;;;5.20;96.30;;;;;;4877375;29;20534;-78
2021/12/13 08:46:32;;;;;;;0.90;0.70;;;5.30;96.30;;;;;;4878265;29;20426;-78
2021/12/13 08:48:59;;;;;;;1.07;0.70;;;5.30;96.30;;;;;;4878508;29;20461;-78
2021/12/13 08:51:29;;;;;;;1.00;0.80;;;5.30;96.30;;;;;;4882751;29;20450;-79
2021/12/13 08:54:04;;;;;;;1.07;0.77;;;5.30;96.30;;;;;;4885488;29;20421;-78
2021/12/13 08:56:33;;;;;;;1.00;0.87;;;5.40;96.30;;;;;;4878434;29;21127;-78
2021/12/13 08:59:09;;;;;;;0.90;0.77;;;5.40;96.30;;;;;;4877271;29;20430;-78
2021/12/13 09:01:45;;;;;;;1.00;0.70;;;5.50;96.30;;;;;;4878325;29;20468;-79
2021/12/13 09:04:22;;;;;;;1.00;0.80;;;5.50;96.30;;;;;;4878006;29;20893;-78
2021/12/13 09:06:53;;;;;;;1.20;0.80;;;5.50;96.30;;;;;;4878289;29;20488;-78
2021/12/13 09:09:19;;;;;;;1.27;0.90;;;5.50;96.30;;;;;;4877192;29;20545;-79
2021/12/13 09:11:51;;;;;;;1.00;0.70;;;5.50;96.30;;;;;;4878356;29;20442;-78
2021/12/13 09:14:27;;;;;;;1.07;0.80;;;5.60;96.30;;;;;;4877466;29;20453;-79
2021/12/13 09:17:10;;;;;;;0.90;0.80;;;5.60;96.30;;;;;;4876551;29;20418;-79
2021/12/13 09:19:50;;;;;;;1.07;0.97;;;5.70;96.30;;;;;;4878369;29;20417;-78
2021/12/13 09:22:33;;;;;;;1.33;0.70;;;5.70;96.30;;;;;;4878210;29;20469;-78
2021/12/13 09:25:14;;;;;;;1.20;0.80;;;5.70;96.30;;;;;;4876978;29;20795;-78
2021/12/13 09:27:47;;;;;;;1.00;0.70;;;5.70;96.30;;;;;;4878000;29;20770;-78
2021/12/13 09:30:33;;;;;;;1.80;0.90;;;5.70;96.30;;;;;;4878149;29;20417;-78
2021/12/13 09:33:06;;;;;;;1.00;0.90;;;5.70;96.30;;;;;;4877082;29;20457;-78
2021/12/13 09:35:49;;;;;;;1.17;0.70;;;5.70;96.30;;;;;;4876987;29;20827;-78
2021/12/13 09:38:20;;;;;;;1.00;0.90;;;5.70;96.30;;;;;;4878219;29;20971;-78
2021/12/13 09:41:23;;;;;;;1.10;0.90;;;5.70;96.30;;;;;;4878002;29;20965;-78
2021/12/13 09:43:54;;;;;;;1.00;0.87;;;5.70;96.30;;;;;;4878059;29;20945;-78
2021/12/13 09:46:44;;;;;;;1.00;0.90;;;5.70;96.30;;;;;;4877923;29;20407;-78
2021/12/13 09:49:19;;;;;;;3.53;1.50;;;5.70;96.30;;;;;;4877956;29;20522;-78
2021/12/13 09:51:49;;;;;;;1.10;0.90;;;5.80;96.30;;;;;;4878024;29;20500;-78
2021/12/13 09:54:20;;;;;;;1.20;1.10;;;5.80;96.30;;;;;;4878107;29;20422;-78
2021/12/13 09:56:49;;;;;;;2.03;0.90;;;5.80;96.30;;;;;;4877859;29;20914;-78
2021/12/13 09:59:18;;;;;;;1.00;0.90;;;5.80;96.30;;;;;;4876711;29;20422;-78
2021/12/13 10:01:44;;;;;;;0.90;0.70;;;5.80;96.30;;;;;;4879038;29;20824;-79
2021/12/13 10:04:23;;;;;;;1.17;0.80;;;5.80;96.30;;;;;;4879543;29;20513;-79
2021/12/13 10:07:13;;;;;;;1.20;0.73;;;5.80;96.30;;;;;;4880536;29;20938;-79
2021/12/13 10:09:43;;;;;;;1.00;0.70;;;5.90;96.30;;;;;;4881455;29;20473;-78
2021/12/13 10:12:28;;;;;;;1.37;0.90;;;5.90;96.30;;;;;;4879782;29;20468;-78
2021/12/13 10:15:08;;;;;;;1.00;0.70;;;5.90;96.30;;;;;;4880523;29;20440;-79
2021/12/13 10:17:37;;;;;;;1.10;0.80;;;6.00;96.30;;;;;;4883922;29;20940;-78
2021/12/13 10:20:19;;;;;;;1.33;1.23;;;6.10;96.30;;;;;;4885199;29;20919;-79
2021/12/13 10:22:46;;;;;;;1.00;0.80;;;6.10;96.30;;;;;;4883592;29;20433;-79
2021/12/13 10:25:26;;;;;;;1.10;1.00;;;6.20;96.30;;;;;;4884400;29;20426;-79
2021/12/13 10:27:53;;;;;;;1.10;0.90;;;6.40;96.30;;;;;;4882118;29;20430;-79
2021/12/13 10:30:29;;;;;;;1.90;1.00;;;6.40;96.30;;;;;;4900238;29;20433;-78
2021/12/13 10:32:55;;;;;;;1.13;0.80;;;6.40;96.30;;;;;;4901169;29;20436;-79
2021/12/13 10:35:26;;;;;;;1.57;0.80;;;6.40;96.30;;;;;;4902512;29;20417;-79
2021/12/13 10:37:56;;;;;;;1.00;0.80;;;6.40;96.30;;;;;;4902419;29;20441;-79
2021/12/13 10:40:27;;;;;;;1.43;1.03;;;6.40;96.30;;;;;;4902134;29;20413;-79
2021/12/13 10:43:02;;;;;;;1.73;1.40;;;6.40;96.30;;;;;;4902095;29;20409;-78
2021/12/13 10:45:42;;;;;;;1.40;0.90;;;6.30;96.30;;;;;;4895868;29;20766;-78
2021/12/13 10:48:12;;;;;;;1.03;0.90;;;6.30;96.30;;;;;;4884594;29;20469;-79
2021/12/13 10:50:41;;;;;;;1.10;0.97;;;6.30;96.30;;;;;;4880451;29;20567;-79
2021/12/13 10:53:09;;;;;;;1.20;0.80;;;6.30;96.30;;;;;;4881896;29;20453;-79
2021/12/13 10:55:46;;;;;;;2.30;0.80;;;6.30;96.30;;;;;;4880619;29;20426;-79
2021/12/13 10:58:21;;;;;;;1.20;0.90;;;6.30;96.30;;;;;;4880698;29;20433;-79
2021/12/13 11:00:55;;;;;;;0.97;0.80;;;6.30;96.30;;;;;;4881017;29;20461;-79
2021/12/13 11:03:24;;;;;;;1.30;0.80;;;6.30;96.30;;;;;;4882225;29;20535;-79
2021/12/13 11:05:51;;;;;;;1.00;0.80;;;6.30;96.30;;;;;;4882238;29;20426;-78
2021/12/13 11:08:19;;;;;;;1.63;1.00;;;6.30;96.30;;;;;;4882286;29;20500;-79
2021/12/13 11:11:08;;;;;;;1.40;1.23;;;6.30;96.30;;;;;;4882058;29;20466;-79
2021/12/13 11:13:38;;;;;;;1.17;0.90;;;6.30;96.30;;;;;;4882148;29;20410;-79
2021/12/13 11:16:31;;;;;;;1.00;0.73;;;6.30;96.30;;;;;;4882268;29;20513;-79
2021/12/13 11:18:58;;;;;;;1.10;0.70;;;6.30;96.30;;;;;;4880718;29;20497;-79
2021/12/13 11:58:00;;;;;;;1.50;0.90;;;6.30;96.30;;;;;;5744875;23;20554;-78
2021/12/13 12:00:48;;;;;;;1.00;0.90;;;6.20;96.30;;;;;;4879213;29;20418;-78
2021/12/13 12:04:01;;;;;;;1.83;1.17;;;6.30;96.30;;;;;;4878056;29;20437;-79
2021/12/13 12:06:55;;;;;;;1.13;1.00;;;6.30;96.30;;;;;;4879025;29;20406;-78
2021/12/13 12:09:38;;;;;;;1.63;1.10;;;6.30;96.30;;;;;;4879078;29;20580;-78
2021/12/13 12:12:35;;;;;;;1.13;1.03;;;6.30;96.30;;;;;;4879824;29;20442;-78
2021/12/13 12:15:06;;;;;;;1.23;1.10;;;6.30;96.30;;;;;;4880514;29;20414;-78
2021/12/13 12:17:33;;;;;;;1.33;1.23;;;6.30;96.30;;;;;;4878746;29;20414;-79
2021/12/13 12:20:00;;;;;;;1.30;1.00;;;6.30;96.30;;;;;;4877480;29;20429;-78
2021/12/13 12:22:52;;;;;;;1.13;1.00;;;6.30;96.30;;;;;;4877574;29;20503;-78
2021/12/13 12:25:22;;;;;;;1.73;1.10;;;6.30;96.30;;;;;;4878982;29;20445;-79
2021/12/13 12:27:50;;;;;;;1.27;1.10;;;6.40;96.30;;;;;;4878647;29;20518;-78
2021/12/13 12:30:23;;;;;;;1.50;0.80;;;6.40;96.30;;;;;;4878736;29;20516;-78
2021/12/13 12:32:54;;;;;;;1.03;0.93;;;6.40;96.30;;;;;;4877563;29;20458;-78
2021/12/13 12:35:26;;;;;;;1.10;0.80;;;6.50;96.30;;;;;;4877581;29;20450;-78
2021/12/13 12:40:45;;;;;;;0.90;0.80;;;6.50;96.30;;;;;;4878942;29;20395;-79
2021/12/13 12:43:15;;;;;;;0.90;0.80;;;6.50;96.30;;;;;;4878706;29;20478;-78
2021/12/13 12:45:48;;;;;;;1.17;0.97;;;6.50;96.30;;;;;;4879113;29;20402;-78
2021/12/13 12:48:33;;;;;;;1.30;1.20;;;6.50;96.30;;;;;;4878589;29;20460;-79
2021/12/13 12:51:02;;;;;;;1.10;0.90;;;6.60;96.30;;;;;;4878551;29;20474;-79
2021/12/13 12:53:50;;;;;;;2.47;1.00;;;6.60;96.30;;;;;;4877283;29;20456;-78
2021/12/13 12:56:20;;;;;;;1.20;0.90;;;6.60;96.30;;;;;;4878410;29;20407;-78
2021/12/13 12:58:57;;;;;;;1.33;0.90;;;6.60;96.30;;;;;;4878420;29;20434;-77
2021/12/13 13:01:57;;;;;;;1.20;0.80;;;6.60;96.30;;;;;;4877212;29;20494;-78
2021/12/13 13:04:27;;;;;;;1.47;1.30;;;6.60;96.30;;;;;;4877237;29;20418;-79
2021/12/13 13:07:05;;;;;;;1.30;1.10;;;6.50;96.30;;;;;;4878290;29;20509;-79
2021/12/13 13:09:53;;;;;;;1.20;0.97;;;6.60;96.30;;;;;;4878367;29;20445;-78
2021/12/13 13:12:31;;;;;;;1.10;0.90;;;6.60;96.30;;;;;;4877173;29;20453;-79
2021/12/13 13:15:15;;;;;;;1.40;1.00;;;6.60;96.30;;;;;;4877158;29;20418;-79
2021/12/13 13:17:45;;;;;;;1.50;1.20;;;6.60;96.30;;;;;;4876852;29;20422;-78
2021/12/13 13:20:17;;;;;;;1.50;1.20;;;6.60;96.30;;;;;;4878213;29;20418;-78
2021/12/13 13:22:47;;;;;;;1.30;1.20;;;6.60;96.30;;;;;;4877032;29;20430;-78
2021/12/13 13:25:20;;;;;;;1.30;1.20;;;6.50;96.30;;;;;;4878250;29;20923;-78
2021/12/13 13:27:46;;;;;;;1.10;0.97;;;6.50;96.30;;;;;;4878044;29;20422;-78
2021/12/13 13:30:21;;;;;;;1.20;1.00;;;6.50;96.30;;;;;;4878144;29;20418;-78
2021/12/13 13:32:47;;;;;;;1.30;1.20;;;6.50;96.30;;;;;;4876911;29;20936;-79
2021/12/13 13:35:13;;;;;;;1.37;1.20;;;6.50;96.30;;;;;;4878171;29;20417;-78
2021/12/13 13:37:42;;;;;;;1.20;0.97;;;6.50;96.30;;;;;;4876754;29;20421;-78
2021/12/13 13:40:08;;;;;;;1.00;0.90;;;6.50;96.30;;;;;;4878148;29;20414;-78
2021/12/13 13:42:49;;;;;;;1.20;0.93;;;6.50;96.30;;;;;;4877972;29;20444;-78
2021/12/13 13:45:23;;;;;;;1.23;1.13;;;6.50;96.30;;;;;;4876869;29;20173;-79
2021/12/13 13:47:57;;;;;;;1.50;1.10;;;6.50;96.30;;;;;;4876529;29;20429;-78
2021/12/13 13:50:46;;;;;;;1.50;1.40;;;6.40;96.30;;;;;;4878909;29;20426;-79
2021/12/13 13:53:17;;;;;;;1.40;1.30;;;6.40;96.30;;;;;;4881615;29;20485;-78
2021/12/13 13:55:57;;;;;;;1.10;1.00;;;6.40;96.30;;;;;;4881425;29;20402;-79
2021/12/13 13:58:27;;;;;;;1.43;1.30;;;6.40;96.30;;;;;;4881184;29;20512;-79
2021/12/13 14:01:06;;;;;;;1.17;1.07;;;6.40;96.30;;;;;;4881386;29;20438;-79
2021/12/13 14:03:41;;;;;;;1.47;1.37;;;6.40;96.30;;;;;;4881417;29;20508;-79
2021/12/13 14:06:09;;;;;;;1.77;1.67;;;6.40;96.30;;;;;;4879766;29;20433;-78
2021/12/13 14:08:36;;;;;;;1.80;1.70;;;6.40;96.30;;;;;;4881234;29;20464;-78
2021/12/13 14:11:08;;;;;;;2.37;1.90;;;6.40;96.30;;;;;;4881180;29;20438;-78
2021/12/13 14:13:39;;;;;;;2.57;2.37;;;6.40;96.30;;;;;;4880042;29;20421;-78
2021/12/13 14:16:20;;;;;;;3.10;2.40;;;6.40;96.30;;;;;;4879750;29;20927;-78
2021/12/13 14:18:47;;;;;;;2.37;2.07;;;6.40;96.30;;;;;;4879882;29;20418;-78
2021/12/13 14:21:15;;;;;;;2.77;1.97;;;6.30;96.30;;;;;;4879773;29;20478;-78
2021/12/13 14:23:45;;;;;;;2.13;1.93;;;6.30;96.30;;;;;;4879854;29;20845;-78
2021/12/13 14:26:18;;;;;;;1.67;1.53;;;6.30;96.30;;;;;;4879629;29;20534;-78
2021/12/13 14:28:50;;;;;;;2.37;1.57;;;6.30;96.30;;;;;;4881241;29;20450;-79
2021/12/13 14:31:25;;;;;;;1.20;1.10;;;6.30;96.30;;;;;;4879309;29;20454;-78
2021/12/13 14:34:04;;;;;;;1.70;1.10;;;6.30;96.30;;;;;;4860916;29;20419;-78
2021/12/13 14:36:37;;;;;;;1.50;1.10;;;6.30;96.30;;;;;;4862050;29;20510;-79
2021/12/13 14:39:21;;;;;;;1.27;1.17;;;6.30;96.30;;;;;;4860947;29;20605;-78
2021/12/13 14:42:08;;;;;;;1.23;1.13;;;6.20;96.30;;;;;;4869331;29;20442;-79
2021/12/13 14:45:03;;;;;;;1.60;1.50;;;6.20;96.30;;;;;;4879720;29;20566;-78
2021/12/13 14:47:42;;;;;;;1.63;1.47;;;6.20;96.30;;;;;;4879356;29;20945;-78
2021/12/13 14:50:30;;;;;;;1.90;1.73;;;6.20;96.30;;;;;;4880521;29;20797;-78
2021/12/13 14:53:01;;;;;;;1.97;1.60;;;6.20;96.30;;;;;;4880841;29;20425;-79
2021/12/13 14:55:41;;;;;;;2.10;1.90;;;6.20;96.30;;;;;;4884610;29;20407;-79
2021/12/13 14:58:15;;;;;;;1.53;1.43;;;6.10;96.30;;;;;;4879275;29;20799;-80
2021/12/13 15:00:46;;;;;;;1.97;1.30;;;6.20;96.30;;;;;;4879858;29;20434;-79
2021/12/13 15:03:22;;;;;;;1.90;1.70;;;6.10;96.30;;;;;;4880227;29;20474;-78
2021/12/13 15:05:56;;;;;;;1.70;1.60;;;6.20;96.30;;;;;;4880108;29;20433;-78
2021/12/13 15:08:24;;;;;;;3.97;1.50;;;6.10;96.30;;;;;;4878986;29;20965;-79
2021/12/13 15:11:02;;;;;;;1.80;1.60;;;6.10;96.30;;;;;;4878919;29;20449;-77
2021/12/13 15:13:28;;;;;;;1.70;1.60;;;6.20;96.30;;;;;;4867947;29;20462;-77
2021/12/13 15:16:05;;;;;;;1.90;1.60;;;6.10;96.30;;;;;;4873727;29;20415;-77
2021/12/13 15:18:51;;;;;;;1.77;1.50;;;6.10;96.30;;;;;;4880083;29;20402;-75
2021/12/13 15:21:21;;;;;;;2.27;1.73;;;6.10;96.30;;;;;;4879776;29;20448;-75
2021/12/13 15:23:49;;;;;;;1.80;1.70;;;6.10;96.30;;;;;;4879645;29;20893;-76
2021/12/13 15:26:36;;;;;;;2.33;1.70;;;6.10;96.30;;;;;;4879693;29;20422;-75
2021/12/13 15:29:21;;;;;;;2.07;1.80;;;6.10;96.30;;;;;;4878406;29;20468;-76
2021/12/13 15:31:50;;;;;;;2.00;1.80;;;6.10;96.30;;;;;;4878310;29;20454;-77
2021/12/13 15:34:25;;;;;;;3.07;1.70;;;6.10;96.30;;;;;;4879662;29;20418;-76
2021/12/13 15:36:51;;;;;;;1.63;1.53;;;6.10;96.30;;;;;;4879386;29;20406;-75
2021/12/13 15:39:19;;;;;;;1.77;1.60;;;6.10;96.30;;;;;;4879567;29;20415;-76
2021/12/13 15:41:48;;;;;;;2.13;1.93;;;6.10;96.30;;;;;;4878359;29;20525;-76
2021/12/13 15:44:16;;;;;;;1.80;1.70;;;6.10;96.30;;;;;;4879711;29;20501;-76
2021/12/13 15:46:45;;;;;;;2.23;1.67;;;6.10;96.30;;;;;;4873432;29;20506;-76
2021/12/13 15:49:31;;;;;;;1.50;1.40;;;6.10;96.30;;;;;;4863796;29;20615;-75
2021/12/13 15:52:07;;;;;;;1.70;1.57;;;6.10;96.30;;;;;;4869156;29;20954;-77
2021/12/13 15:54:43;;;;;;;3.80;1.60;;;6.10;96.30;;;;;;4879842;29;20493;-76
2021/12/13 15:57:16;;;;;;;2.07;1.60;;;6.00;96.30;;;;;;4879392;29;20441;-76
2021/12/13 15:59:45;;;;;;;1.70;1.60;;;6.10;96.30;;;;;;4875718;29;20430;-75
2021/12/13 16:02:23;;;;;;;2.70;1.67;;;6.10;96.30;;;;;;4874940;29;20475;-76
2021/12/13 16:05:01;;;;;;;1.73;1.47;;;6.10;96.30;;;;;;4863161;29;20414;-75
2021/12/13 16:07:27;;;;;;;2.03;1.83;;;6.00;96.30;;;;;;4860849;29;20412;-76
2021/12/13 16:09:57;;;;;;;1.83;1.73;;;6.10;96.30;;;;;;4860776;29;20455;-76
2021/12/13 16:12:31;;;;;;;2.50;2.07;;;6.00;96.30;;;;;;4860631;29;20943;-76
2021/12/13 16:15:06;;;;;;;1.73;1.63;;;6.00;96.30;;;;;;4860697;29;20439;-76
2021/12/13 16:17:35;;;;;;;2.37;2.13;;;6.00;96.30;;;;;;4860507;29;20464;-76
2021/12/13 16:20:11;;;;;;;2.00;1.70;;;6.00;96.30;;;;;;4860817;29;20415;-76
2021/12/13 16:22:51;;;;;;;2.20;1.83;;;6.00;96.30;;;;;;4865993;29;20425;-76
2021/12/13 16:25:26;;;;;;;2.40;2.10;;;6.00;96.30;;;;;;4878945;29;20457;-76
2021/12/13 16:27:59;;;;;;;1.90;1.70;;;5.90;96.30;;;;;;4878727;29;20413;-74
2021/12/13 16:30:33;;;;;;;2.30;2.10;;;5.90;96.30;;;;;;4878898;29;20394;-76
2021/12/13 16:33:01;;;;;;;3.17;1.97;;;6.00;96.30;;;;;;4878861;29;20403;-76
2021/12/13 16:35:29;;;;;;;2.50;2.30;;;6.00;96.30;;;;;;4878771;29;20467;-76
2021/12/13 16:37:57;;;;;;;3.27;1.93;;;5.90;96.30;;;;;;4878565;29;20418;-76
2021/12/13 16:40:27;;;;;;;2.43;2.23;;;5.90;96.30;;;;;;4878669;29;20523;-77
2021/12/13 16:43:02;;;;;;;3.43;2.10;;;5.90;96.30;;;;;;4878773;29;20405;-77
2021/12/13 16:45:32;;;;;;;2.53;1.87;;;5.90;96.30;;;;;;4878788;29;20922;-76
2021/12/13 16:47:57;;;;;;;2.50;2.23;;;5.90;96.30;;;;;;4877109;29;20429;-76
2021/12/13 16:50:27;;;;;;;2.27;2.07;;;5.90;96.30;;;;;;4878537;29;20422;-76
2021/12/13 16:52:56;;;;;;;1.90;1.80;;;5.90;96.30;;;;;;4878773;29;20178;-77
2021/12/13 16:55:25;;;;;;;2.10;1.90;;;5.90;96.30;;;;;;4877282;29;20433;-76
2021/12/13 16:57:52;;;;;;;2.00;1.83;;;5.90;96.30;;;;;;4876972;29;20803;-76
2021/12/13 17:00:22;;;;;;;2.00;1.80;;;5.90;96.30;;;;;;4877112;29;20426;-76
2021/12/13 17:02:49;;;;;;;2.27;2.00;;;5.90;96.30;;;;;;4878444;29;20398;-76
2021/12/13 17:05:19;;;;;;;2.37;2.17;;;5.90;96.30;;;;;;4877136;29;20426;-77
2021/12/13 17:07:49;;;;;;;2.10;1.90;;;5.90;96.30;;;;;;4879454;29;20410;-76
2021/12/13 17:10:37;;;;;;;2.77;2.47;;;5.80;96.30;;;;;;4889610;29;20460;-77
2021/12/13 17:13:08;;;;;;;2.67;2.47;;;5.90;96.30;;;;;;4878444;29;20947;-77
2021/12/13 17:15:45;;;;;;;2.50;2.30;;;5.90;96.30;;;;;;4877147;29;20412;-76
2021/12/13 17:18:22;;;;;;;3.67;2.60;;;5.80;96.30;;;;;;4878426;29;20417;-76
2021/12/13 17:21:03;;;;;;;2.37;2.17;;;5.80;96.30;;;;;;4877075;29;20536;-77
2021/12/13 17:23:32;;;;;;;2.70;2.50;;;5.80;96.30;;;;;;4878386;29;20414;-77
2021/12/13 17:26:19;;;;;;;2.83;2.57;;;5.80;96.30;;;;;;4881280;29;20803;-76
2021/12/13 17:28:44;;;;;;;2.93;2.40;;;5.80;96.30;;;;;;4843492;29;20478;-77
2021/12/13 17:31:10;;;;;;;3.00;2.70;;;5.80;96.30;;;;;;4881903;29;20441;-77
2021/12/13 17:33:37;;;;;;;3.23;2.93;;;5.80;96.30;;;;;;4882106;29;20788;-77
2021/12/13 17:36:06;;;;;;;3.40;3.17;;;5.80;96.30;;;;;;4881750;29;20178;-77
2021/12/13 17:38:36;;;;;;;3.20;3.00;;;5.80;96.30;;;;;;4881982;29;20470;-76
2021/12/13 17:41:06;;;;;;;4.00;3.60;;;5.80;96.30;;;;;;4880490;29;20603;-77
2021/12/13 17:43:36;;;;;;;3.40;3.10;;;5.80;96.30;;;;;;4881853;29;20911;-76
2021/12/13 17:46:09;;;;;;;4.83;4.23;;;5.80;96.30;;;;;;4881627;29;21089;-76
2021/12/13 17:48:35;;;;;;;5.03;4.63;;;5.80;96.30;;;;;;4881652;29;20506;-77
2021/12/13 17:51:11;;;;;;;6.13;5.53;;;5.80;96.30;;;;;;4881606;29;20466;-76
2021/12/13 17:53:50;;;;;;;6.63;5.53;;;5.80;96.30;;;;;;4881617;29;20243;-76
2021/12/13 17:56:36;;;;;;;7.37;4.70;;;5.80;96.30;;;;;;4881221;29;20759;-77
2021/12/13 17:59:15;;;;;;;5.07;4.57;;;5.80;96.30;;;;;;4867992;29;20441;-77
2021/12/13 18:01:45;;;;;;;5.23;4.73;;;5.80;96.30;;;;;;4881495;29;20922;-77
2021/12/13 18:04:16;;;;;;;5.90;4.30;;;5.80;96.30;;;;;;4881555;29;20430;-77
2021/12/13 18:06:43;;;;;;;5.10;4.60;;;5.80;96.30;;;;;;4881097;29;20439;-77
2021/12/13 18:09:23;;;;;;;4.07;3.77;;;5.80;96.30;;;;;;4881342;29;20461;-77
2021/12/13 18:12:11;;;;;;;7.40;5.87;;;5.80;96.30;;;;;;4881259;29;20445;-77
2021/12/13 18:14:40;;;;;;;16.60;13.70;;;5.80;96.30;;;;;;4881465;29;20496;-77
2021/12/13 18:17:14;;;;;;;12.07;10.80;;;5.80;96.30;;;;;;4879704;29;20426;-77